createdAt,value
2023-05-05T03:02:21.797Z,99.90
2023-05-05T03:04:53.329Z,99.90
2023-05-05T03:07:42.230Z,99.90
2023-05-05T03:10:12.193Z,99.90
2023-05-05T03:12:50.959Z,99.90
2023-05-05T03:15:19.814Z,99.90
2023-05-05T03:17:47.563Z,99.90
2023-05-05T03:20:15.124Z,99.90
2023-05-05T03:22:42.315Z,99.90
2023-05-05T03:25:09.590Z,99.90
2023-05-05T03:27:36.913Z,99.90
2023-05-05T03:30:04.498Z,99.90
2023-05-05T03:32:31.842Z,99.90
2023-05-05T03:34:59.069Z,99.90
2023-05-05T03:37:26.247Z,99.90
2023-05-05T03:39:53.419Z,99.90
2023-05-05T03:42:20.769Z,99.90
2023-05-05T03:44:47.965Z,99.90
2023-05-05T03:47:15.133Z,99.90
2023-05-05T03:49:42.418Z,99.90
2023-05-05T03:52:12.650Z,99.90
2023-05-05T03:54:42.500Z,99.90
2023-05-05T03:57:09.670Z,99.90
2023-05-05T03:59:36.826Z,99.90
2023-05-05T04:02:04.000Z,99.90
2023-05-05T04:04:31.337Z,99.90
2023-05-05T04:06:58.626Z,99.90
2023-05-05T04:09:25.851Z,99.90
2023-05-05T04:11:53.258Z,99.90
2023-05-05T04:14:20.551Z,99.90
2023-05-05T04:16:47.769Z,99.90
2023-05-05T04:19:15.023Z,99.90
2023-05-05T04:21:42.403Z,99.90
2023-05-05T04:24:09.797Z,99.90
2023-05-05T04:26:37.209Z,99.90
2023-05-05T04:29:04.536Z,99.90
2023-05-05T04:31:32.121Z,99.90
2023-05-05T04:33:59.422Z,99.90
2023-05-05T04:36:26.610Z,99.90
2023-05-05T04:38:53.885Z,99.90
2023-05-05T04:41:21.393Z,99.90
2023-05-05T04:43:48.757Z,99.90
2023-05-05T04:46:15.988Z,99.90
2023-05-05T04:48:43.185Z,99.90
2023-05-05T04:51:10.689Z,99.90
2023-05-05T04:53:37.870Z,99.90
2023-05-05T04:56:05.309Z,99.90
2023-05-05T04:58:32.629Z,99.90
2023-05-05T05:00:59.833Z,99.90
2023-05-05T05:03:27.152Z,99.90
2023-05-05T05:05:54.379Z,99.90
2023-05-05T05:08:21.573Z,99.90
2023-05-05T05:10:48.792Z,99.90
2023-05-05T05:13:16.093Z,99.90
2023-05-05T05:15:43.304Z,99.90
2023-05-05T05:18:10.528Z,99.90
2023-05-05T05:20:37.758Z,99.90
2023-05-05T05:23:05.108Z,99.90
2023-05-05T05:25:32.346Z,99.90
2023-05-05T05:28:09.334Z,99.90
2023-05-05T05:30:37.680Z,99.90
2023-05-05T05:33:05.055Z,99.90
2023-05-05T05:35:32.485Z,99.90
2023-05-05T05:37:59.674Z,99.90
2023-05-05T05:42:54.343Z,99.90
2023-05-05T05:45:21.749Z,99.90
2023-05-05T05:47:49.429Z,99.90
2023-05-05T05:50:16.883Z,99.90
2023-05-05T05:52:44.134Z,99.90
2023-05-05T05:55:11.423Z,99.90
2023-05-05T05:57:39.535Z,99.90
2023-05-05T06:00:07.726Z,99.90
2023-05-05T06:02:35.571Z,99.90
2023-05-05T06:05:02.808Z,99.90
2023-05-05T06:07:30.045Z,99.90
2023-05-05T06:09:57.180Z,99.90
2023-05-05T06:12:24.383Z,99.90
2023-05-05T06:14:51.588Z,99.90
2023-05-05T06:17:18.730Z,99.90
2023-05-05T06:19:45.904Z,99.90
2023-05-05T06:22:13.074Z,99.90
2023-05-05T06:24:40.297Z,99.90
2023-05-05T06:27:07.502Z,99.90
2023-05-05T06:29:34.719Z,99.90
2023-05-05T06:32:01.976Z,96.80
2023-05-05T06:34:29.138Z,96.90
2023-05-05T06:36:56.343Z,96.70
2023-05-05T06:39:23.528Z,93.90
2023-05-05T06:41:50.710Z,91.90
2023-05-05T06:44:17.956Z,89.60
2023-05-05T06:46:45.286Z,90.30
2023-05-05T06:49:12.773Z,83.80
2023-05-05T06:51:41.535Z,84.90
2023-05-05T06:54:10.012Z,81.80
2023-05-05T06:56:37.168Z,79.30
2023-05-05T06:59:04.336Z,81.00
2023-05-05T07:01:31.555Z,75.00
2023-05-05T07:03:58.861Z,75.90
2023-05-05T07:06:26.183Z,75.60
2023-05-05T07:08:53.395Z,75.80
2023-05-05T07:11:20.909Z,79.80
2023-05-05T07:13:49.325Z,82.60
2023-05-05T07:16:16.527Z,85.70
2023-05-05T07:18:43.735Z,89.30
2023-05-05T07:21:10.938Z,88.50
2023-05-05T07:23:39.103Z,86.60
2023-05-05T07:26:06.410Z,84.40
2023-05-05T07:28:34.809Z,84.80
2023-05-05T07:31:02.085Z,78.80
2023-05-05T07:33:29.247Z,76.40
2023-05-05T07:35:56.505Z,79.50
2023-05-05T07:38:25.287Z,82.40
2023-05-05T07:40:52.472Z,81.40
2023-05-05T07:43:19.654Z,82.20
2023-05-05T07:45:46.849Z,82.60
2023-05-05T07:48:14.084Z,77.30
2023-05-05T07:50:41.340Z,81.70
2023-05-05T07:53:14.478Z,81.80
2023-05-05T07:55:42.501Z,81.30
2023-05-05T07:58:11.139Z,78.60
2023-05-05T08:00:39.431Z,79.30
2023-05-05T08:03:08.984Z,80.30
2023-05-05T08:05:38.425Z,76.70
2023-05-05T08:08:06.183Z,75.50
2023-05-05T08:10:33.364Z,75.50
2023-05-05T08:13:00.940Z,75.20
2023-05-05T08:15:28.239Z,74.20
2023-05-05T08:17:58.518Z,70.40
2023-05-05T08:20:28.688Z,67.00
2023-05-05T08:22:56.319Z,69.10
2023-05-05T08:25:24.185Z,66.30
2023-05-05T08:27:51.433Z,64.80
2023-05-05T08:30:20.936Z,66.90
2023-05-05T08:32:48.184Z,69.50
2023-05-05T08:35:15.401Z,69.00
2023-05-05T08:37:46.409Z,64.80
2023-05-05T08:40:14.288Z,65.30
2023-05-05T08:42:42.145Z,69.00
2023-05-05T08:45:10.767Z,63.30
2023-05-05T08:47:39.311Z,63.30
2023-05-05T08:50:09.916Z,65.20
2023-05-05T08:52:44.403Z,65.50
2023-05-05T08:55:21.291Z,63.90
2023-05-05T08:57:54.534Z,65.10
2023-05-05T09:00:22.295Z,66.80
2023-05-05T09:02:49.897Z,64.10
2023-05-05T09:05:18.143Z,60.80
2023-05-05T09:07:46.752Z,61.50
2023-05-05T09:10:14.007Z,62.30
2023-05-05T09:12:41.989Z,66.50
2023-05-05T09:15:14.354Z,63.10
2023-05-05T09:17:42.095Z,65.80
2023-05-05T09:20:14.212Z,64.00
2023-05-05T09:22:46.770Z,58.30
2023-05-05T09:25:16.048Z,60.00
2023-05-05T09:27:49.204Z,65.20
2023-05-05T09:30:26.964Z,66.50
2023-05-05T09:32:55.334Z,64.80
2023-05-05T09:35:23.436Z,65.70
2023-05-05T09:37:50.795Z,67.60
2023-05-05T09:40:19.862Z,66.60
2023-05-05T09:42:47.513Z,65.20
2023-05-05T09:45:17.531Z,65.50
2023-05-05T09:47:46.394Z,63.90
2023-05-05T09:50:21.455Z,71.60
2023-05-05T09:52:59.995Z,70.70
2023-05-05T09:55:27.469Z,68.00
2023-05-05T09:57:54.799Z,67.90
2023-05-05T10:00:22.471Z,72.10
2023-05-05T10:02:49.860Z,66.20
2023-05-05T10:05:18.612Z,71.50
2023-05-05T10:07:47.815Z,70.30
2023-05-05T10:10:18.422Z,72.00
2023-05-05T10:12:47.525Z,67.40
2023-05-05T10:15:16.435Z,71.70
2023-05-05T10:18:05.316Z,70.50
2023-05-05T10:20:36.245Z,71.30
2023-05-05T10:23:08.037Z,72.90
2023-05-05T10:25:43.499Z,69.80
2023-05-05T10:28:15.754Z,66.90
2023-05-05T10:30:46.301Z,67.80
2023-05-05T10:33:31.625Z,71.20
2023-05-05T10:36:02.489Z,69.00
2023-05-05T10:38:33.831Z,69.90
2023-05-05T10:41:02.162Z,71.50
2023-05-05T10:43:32.610Z,72.70
2023-05-05T10:46:00.708Z,71.70
2023-05-05T10:48:37.500Z,75.30
2023-05-05T10:51:35.272Z,73.30
2023-05-05T10:54:13.820Z,73.90
2023-05-05T10:56:42.803Z,75.10
2023-05-05T10:59:37.964Z,72.10
2023-05-05T11:02:23.520Z,76.00
2023-05-05T11:05:10.626Z,79.20
2023-05-05T11:07:38.375Z,78.30
2023-05-05T11:10:10.691Z,76.30
2023-05-05T11:13:10.622Z,71.20
2023-05-05T11:15:38.176Z,74.00
2023-05-05T11:18:07.914Z,73.00
2023-05-05T11:20:45.340Z,77.60
2023-05-05T11:23:14.512Z,77.60
2023-05-05T11:25:44.525Z,70.90
2023-05-05T11:28:13.706Z,75.40
2023-05-05T11:30:59.192Z,73.90
2023-05-05T11:33:31.140Z,74.70
2023-05-05T11:36:06.099Z,70.50
2023-05-05T11:38:55.605Z,70.00
2023-05-05T11:41:33.691Z,67.70
2023-05-05T11:44:13.901Z,68.00
2023-05-05T11:47:01.935Z,70.30
2023-05-05T11:49:39.440Z,72.70
2023-05-05T11:52:08.792Z,77.20
2023-05-05T11:54:38.303Z,71.90
2023-05-05T11:57:07.272Z,69.50
2023-05-05T11:59:55.424Z,69.90
2023-05-05T12:02:23.776Z,68.30
2023-05-05T12:04:51.414Z,70.20
2023-05-05T12:07:20.537Z,71.90
2023-05-05T12:09:48.936Z,72.70
2023-05-05T12:12:16.522Z,71.20
2023-05-05T12:14:51.502Z,73.10
2023-05-05T12:17:23.299Z,72.90
2023-05-05T12:19:55.180Z,73.30
2023-05-05T12:22:24.859Z,70.70
2023-05-05T12:24:55.459Z,71.90
2023-05-05T12:27:23.614Z,75.80
2023-05-05T12:29:51.705Z,71.40
2023-05-05T12:32:24.334Z,76.90
2023-05-05T12:34:57.387Z,79.30
2023-05-05T12:37:27.081Z,78.30
2023-05-05T12:39:55.130Z,79.50
2023-05-05T12:42:23.218Z,77.80
2023-05-05T12:44:50.615Z,76.60
2023-05-05T12:47:31.963Z,80.10
2023-05-05T12:50:00.798Z,81.90
2023-05-05T12:52:45.048Z,79.40
2023-05-05T12:55:12.613Z,76.90
2023-05-05T12:58:00.824Z,81.90
2023-05-05T13:02:56.967Z,77.20
2023-05-05T13:05:31.856Z,73.60
2023-05-05T13:07:59.396Z,75.10
2023-05-05T13:10:28.070Z,77.10
2023-05-05T13:12:56.849Z,77.60
2023-05-05T13:15:24.942Z,77.90
2023-05-05T13:18:00.077Z,76.30
2023-05-05T13:20:27.530Z,74.80
2023-05-05T13:22:54.789Z,74.70
2023-05-05T13:25:21.965Z,75.90
2023-05-05T13:27:49.186Z,78.00
2023-05-05T13:30:16.413Z,78.40
2023-05-05T13:32:43.597Z,77.60
2023-05-05T13:35:11.707Z,77.40
2023-05-05T13:37:41.425Z,76.80
2023-05-05T13:40:09.365Z,75.40
2023-05-05T13:42:36.494Z,79.30
2023-05-05T13:45:04.037Z,76.90
2023-05-05T13:47:31.290Z,79.80
2023-05-05T13:49:58.518Z,80.50
2023-05-05T13:52:25.985Z,74.20
2023-05-05T13:54:53.384Z,75.60
2023-05-05T13:57:20.632Z,79.50
2023-05-05T13:59:47.791Z,76.10
2023-05-05T14:02:15.000Z,75.50
2023-05-05T14:04:42.174Z,77.70
2023-05-05T14:07:09.350Z,77.70
2023-05-05T14:09:36.641Z,76.00
2023-05-05T14:12:04.055Z,75.60
2023-05-05T14:14:31.297Z,77.70
2023-05-05T14:16:58.557Z,79.30
2023-05-05T14:19:25.860Z,80.80
2023-05-05T14:21:53.110Z,83.70
2023-05-05T14:24:20.310Z,80.60
2023-05-05T14:26:47.520Z,83.60
2023-05-05T14:29:14.726Z,83.70
2023-05-05T14:31:41.937Z,79.90
2023-05-05T14:34:09.088Z,80.30
2023-05-05T14:36:36.256Z,79.30
2023-05-05T14:39:03.468Z,80.70
2023-05-05T14:41:30.722Z,80.80
2023-05-05T14:43:59.114Z,81.40
2023-05-05T14:46:27.446Z,82.50
2023-05-05T14:48:54.773Z,82.10
2023-05-05T14:51:21.959Z,81.40
2023-05-05T14:53:49.212Z,78.80
2023-05-05T14:56:17.064Z,78.50
2023-05-05T14:58:44.296Z,79.10
2023-05-05T15:01:11.476Z,81.60
2023-05-05T15:03:38.815Z,78.70
2023-05-05T15:06:07.186Z,78.80
2023-05-05T15:08:34.580Z,80.60
2023-05-05T15:11:01.934Z,78.60
2023-05-05T15:13:29.751Z,80.20
2023-05-05T15:15:57.057Z,81.80
2023-05-05T15:18:24.591Z,79.90
2023-05-05T15:20:51.964Z,79.90
2023-05-05T15:23:19.177Z,82.70
2023-05-05T15:25:46.623Z,82.60
2023-05-05T15:28:13.848Z,80.70
2023-05-05T15:30:41.460Z,82.20
2023-05-05T15:33:08.632Z,83.10
2023-05-05T15:35:36.334Z,86.20
2023-05-05T15:38:03.661Z,84.10
2023-05-05T15:40:30.890Z,82.40
2023-05-05T15:42:58.173Z,82.90
2023-05-05T15:45:25.486Z,84.30
2023-05-05T15:47:53.637Z,84.90
2023-05-05T15:50:21.071Z,86.20
2023-05-05T15:52:49.798Z,83.50
2023-05-05T15:55:17.567Z,85.10
2023-05-05T15:57:44.859Z,83.30
2023-05-05T16:00:12.630Z,86.20
2023-05-05T16:02:40.064Z,84.30
2023-05-05T16:05:08.126Z,86.20
2023-05-05T16:07:35.635Z,86.80
2023-05-05T16:10:03.556Z,87.90
2023-05-05T16:12:30.822Z,87.10
2023-05-05T16:14:58.743Z,88.40
2023-05-05T16:17:26.108Z,88.60
2023-05-05T16:19:53.320Z,89.20
2023-05-05T16:22:21.000Z,89.60
2023-05-05T16:24:48.250Z,90.00
2023-05-05T16:27:15.531Z,90.10
2023-05-05T16:29:42.810Z,89.80
2023-05-05T16:32:09.991Z,89.30
2023-05-05T16:34:37.146Z,90.30
2023-05-05T16:37:04.328Z,90.30
2023-05-05T16:39:33.036Z,90.90
2023-05-05T16:42:00.349Z,91.40
2023-05-05T16:44:27.562Z,91.10
2023-05-05T16:46:54.746Z,91.10
2023-05-05T16:49:24.133Z,91.10
2023-05-05T16:51:53.442Z,90.50
2023-05-05T16:54:20.701Z,91.10
2023-05-05T16:56:47.875Z,91.20
2023-05-05T16:59:16.676Z,91.40
2023-05-05T17:01:43.857Z,91.70
2023-05-05T17:04:11.861Z,92.00
2023-05-05T17:06:39.117Z,92.00
2023-05-05T17:09:06.349Z,92.10
2023-05-05T17:11:33.498Z,92.70
2023-05-05T17:14:01.439Z,92.70
2023-05-05T17:16:28.819Z,93.30
2023-05-05T17:18:56.309Z,93.00
2023-05-05T17:21:23.672Z,92.60
2023-05-05T17:23:50.859Z,93.00
2023-05-05T17:26:18.061Z,93.20
2023-05-05T17:28:45.268Z,93.20
2023-05-05T17:31:12.575Z,93.70
2023-05-05T17:33:39.728Z,94.00
2023-05-05T17:36:07.272Z,94.60
2023-05-05T17:38:34.586Z,94.90
2023-05-05T17:41:02.062Z,94.70
2023-05-05T17:43:29.273Z,95.10
2023-05-05T17:45:56.554Z,95.50
2023-05-05T17:48:23.719Z,95.70
2023-05-05T17:50:50.926Z,97.70
2023-05-05T17:53:18.169Z,97.20
2023-05-05T17:55:46.121Z,98.10
2023-05-05T17:58:13.657Z,99.90
2023-05-05T18:00:40.964Z,99.90
2023-05-05T18:03:08.313Z,99.90
2023-05-05T18:05:35.686Z,99.90
2023-05-05T18:08:02.885Z,99.90
2023-05-05T18:10:30.118Z,99.90
2023-05-05T18:12:57.301Z,99.90
2023-05-05T18:15:24.610Z,99.90
2023-05-05T18:17:51.919Z,99.90
2023-05-05T18:20:19.288Z,99.90
2023-05-05T18:22:46.886Z,99.90
2023-05-05T18:25:14.093Z,99.90
2023-05-05T18:27:41.596Z,99.90
2023-05-05T18:30:09.141Z,99.90
2023-05-05T18:32:37.184Z,99.90
2023-05-05T18:35:04.753Z,99.90
2023-05-05T18:37:32.215Z,99.90
2023-05-05T18:39:59.410Z,99.90
2023-05-05T18:42:26.819Z,99.90
2023-05-05T18:44:53.982Z,99.90
2023-05-05T18:47:21.652Z,99.90
2023-05-05T18:49:49.757Z,99.90
2023-05-05T18:52:16.965Z,99.90
2023-05-05T18:54:44.202Z,99.90
2023-05-05T18:57:11.405Z,99.90
2023-05-05T18:59:38.630Z,99.90
2023-05-05T19:02:07.888Z,99.90
2023-05-05T19:04:37.825Z,99.90
2023-05-05T19:07:05.306Z,99.90
2023-05-05T19:09:32.761Z,99.90
2023-05-05T19:11:59.956Z,99.90
2023-05-05T19:14:27.233Z,99.90
2023-05-05T19:16:55.901Z,99.90
2023-05-05T19:19:23.269Z,99.90
2023-05-05T19:21:50.582Z,99.90
2023-05-05T19:24:17.743Z,99.90
2023-05-05T19:26:44.903Z,99.90
2023-05-05T19:29:12.755Z,99.90
2023-05-05T19:31:39.992Z,99.90
2023-05-05T19:34:07.372Z,99.90
2023-05-05T19:36:34.785Z,99.90
2023-05-05T19:39:03.421Z,99.90
2023-05-05T19:41:31.057Z,99.90
2023-05-05T19:43:58.336Z,99.90
2023-05-05T19:46:26.691Z,99.90
2023-05-05T19:48:54.024Z,99.90
2023-05-05T19:51:21.377Z,99.90
2023-05-05T19:53:48.678Z,99.90
2023-05-05T19:56:16.944Z,99.90
2023-05-05T19:59:05.039Z,99.90
2023-05-05T20:01:35.618Z,99.90
2023-05-05T20:04:06.041Z,99.90
2023-05-05T20:06:33.792Z,99.90
2023-05-05T20:09:01.878Z,99.90
2023-05-05T20:13:57.175Z,99.90
2023-05-05T20:16:24.581Z,99.90
2023-05-05T20:18:51.792Z,99.90
2023-05-05T20:21:19.032Z,99.90
2023-05-05T20:23:47.310Z,99.90
2023-05-05T20:26:14.504Z,99.90
2023-05-05T20:28:44.826Z,99.90
2023-05-05T20:31:14.214Z,99.90
2023-05-05T20:33:41.598Z,99.90
2023-05-05T20:36:08.942Z,99.90
2023-05-05T20:38:36.186Z,99.90
2023-05-05T20:41:04.148Z,99.90
2023-05-05T20:43:31.342Z,99.90
2023-05-05T20:45:58.621Z,99.90
2023-05-05T20:48:25.782Z,99.90
2023-05-05T20:50:53.104Z,99.90
2023-05-05T20:53:20.990Z,99.90
2023-05-05T20:55:49.775Z,99.90
2023-05-05T20:58:17.060Z,99.90
